Time;durP1;ratioP1;P1;durP2;ratioP2;P2;SDS_P1;SDS_P2;PMS_P1;PMS_P2;Temp;Humidity;BMP_temperature;BMP_pressure;BME280_temperature;BME280_humidity;BME280_pressure;Samples;Min_cycle;Max_cycle;Signal;HPM_P1;HPM_P2
2024/02/29 00:01:27;;;;;;;;;;;;;;;7.06;100.00;101445.34;5075092;28;19955;-76
2024/02/29 00:03:53;;;;;;;;;;;;;;;7.07;100.00;101434.88;5078326;28;19927;-76
2024/02/29 00:06:18;;;;;;;;;;;;;;;7.09;100.00;101429.66;5082434;28;19927;-76
2024/02/29 00:08:43;;;;;;;;;;;;;;;7.07;100.00;101428.81;5088026;28;19919;-76
2024/02/29 00:11:08;;;;;;;;;;;;;;;7.04;100.00;101424.53;5086005;28;19943;-76
2024/02/29 00:13:33;;;;;;;;;;;;;;;7.07;100.00;101421.00;5075687;28;19920;-76
2024/02/29 00:15:59;;;;;;;;;;;;;;;7.07;100.00;101421.84;5074771;28;19951;-76
2024/02/29 00:18:24;;;;;;;;;;;;;;;7.10;100.00;101415.75;5078042;28;20019;-76
2024/02/29 00:20:49;;;;;;;;;;;;;;;7.12;100.00;101413.97;5087035;28;19924;-76
2024/02/29 00:23:15;;;;;;;;;;;;;;;7.09;100.00;101417.50;5074963;28;19991;-76
2024/02/29 00:25:40;;;;;;;;;;;;;;;7.07;100.00;101414.03;5087548;28;20096;-76
2024/02/29 00:28:05;;;;;;;;;;;;;;;7.08;100.00;101412.31;5075537;28;19931;-76
2024/02/29 00:30:30;;;;;;;;;;;;;;;7.09;100.00;101404.47;5088677;28;19912;-76
2024/02/29 00:32:56;;;;;;;;;;;;;;;7.09;100.00;101407.09;5084055;28;19912;-76
2024/02/29 00:35:21;;;;;;;;;;;;;;;7.09;100.00;101394.06;5083092;28;19909;-76
2024/02/29 00:37:46;;;;;;;;;;;;;;;7.09;100.00;101396.66;5074898;28;19920;-76
2024/02/29 00:40:11;;;;;;;;;;;;;;;7.09;100.00;101393.19;5067555;28;19918;-76
2024/02/29 00:42:37;;;;;;;;;;;;;;;7.07;100.00;101392.34;5092998;28;20198;-76
2024/02/29 00:45:02;;;;;;;;;;;;;;;7.04;100.00;101397.59;5082294;28;20313;-76
2024/02/29 00:47:27;;;;;;;;;;;;;;;7.03;100.00;101390.69;5075104;28;19916;-76
2024/02/29 00:49:53;;;;;;;;;;;;;;;6.99;100.00;101384.69;5074774;28;20137;-76
2024/02/29 00:52:18;;;;;;;;;;;;;;;7.00;100.00;101390.75;5063022;28;20174;-76
2024/02/29 00:54:43;;;;;;;;;;;;;;;6.97;100.00;101383.84;5079890;28;20089;-76
2024/02/29 00:57:08;;;;;;;;;;;;;;;7.00;100.00;101383.78;5095122;28;20146;-76
2024/02/29 00:59:33;;;;;;;;;;;;;;;6.99;100.00;101381.22;5079461;28;20115;-76
2024/02/29 01:01:59;;;;;;;;;;;;;;;6.99;100.00;101381.22;5056442;28;20148;-77
2024/02/29 01:04:24;;;;;;;;;;;;;;;6.99;100.00;101373.41;5075471;28;20211;-76
2024/02/29 01:06:49;;;;;;;;;;;;;;;7.03;100.00;101368.09;5090543;28;20127;-76
2024/02/29 01:09:15;;;;;;;;;;;;;;;7.01;100.00;101369.03;5084923;28;19950;-76
2024/02/29 01:11:40;;;;;;;;;;;;;;;7.01;100.00;101363.81;5065800;28;19916;-76
2024/02/29 01:14:05;;;;;;;;;;;;;;;7.03;100.00;101356.84;5084586;28;19951;-76
2024/02/29 01:16:30;;;;;;;;;;;;;;;7.03;100.00;101347.28;5081675;28;19924;-77
2024/02/29 01:18:57;;;;;;;;;;;;;;;7.05;100.00;101353.31;5098039;28;19999;-76
2024/02/29 01:21:22;;;;;;;;;;;;;;;7.05;100.00;101337.69;5098942;28;19932;-76
2024/02/29 01:23:47;;;;;;;;;;;;;;;7.02;100.00;101336.88;5091942;28;19920;-76
2024/02/29 01:26:12;;;;;;;;;;;;;;;7.02;100.00;101332.56;5082414;28;20000;-76
2024/02/29 01:28:38;;;;;;;;;;;;;;;7.05;100.00;101329.03;5080426;28;19920;-76
2024/02/29 01:31:03;;;;;;;;;;;;;;;7.06;100.00;101326.38;5087854;28;19912;-77
2024/02/29 01:33:29;;;;;;;;;;;;;;;7.04;100.00;101328.16;5084289;28;20049;-76
2024/02/29 01:35:54;;;;;;;;;;;;;;;7.06;100.00;101320.34;5089497;28;19923;-76
2024/02/29 01:38:19;;;;;;;;;;;;;;;7.10;100.00;101322.84;5078056;28;19921;-76
2024/02/29 01:40:45;;;;;;;;;;;;;;;7.15;100.00;101311.47;5082122;28;19965;-76
2024/02/29 01:43:11;;;;;;;;;;;;;;;7.16;100.00;101315.78;5080612;28;19924;-76
2024/02/29 01:45:36;;;;;;;;;;;;;;;7.14;100.00;101315.81;5097714;28;20052;-76
2024/02/29 01:48:01;;;;;;;;;;;;;;;7.17;100.00;101301.88;5078368;28;19924;-76
2024/02/29 01:50:28;;;;;;;;;;;;;;;7.19;100.00;101303.56;5086984;28;20051;-76
2024/02/29 01:52:53;;;;;;;;;;;;;;;7.17;100.00;101291.44;5084981;28;19995;-76
2024/02/29 01:55:18;;;;;;;;;;;;;;;7.17;100.00;101288.84;5088852;28;20138;-76
2024/02/29 01:57:43;;;;;;;;;;;;;;;7.17;100.00;101287.13;5094853;28;19933;-76
2024/02/29 02:00:10;;;;;;;;;;;;;;;7.21;100.00;101280.09;5082133;28;19920;-76
2024/02/29 02:02:37;;;;;;;;;;;;;;;7.19;100.00;101274.91;5077621;28;20168;-76
2024/02/29 02:05:03;;;;;;;;;;;;;;;7.19;100.00;101281.88;5059664;28;19927;-76
2024/02/29 02:07:28;;;;;;;;;;;;;;;7.19;100.00;101269.72;5077916;28;20105;-76
2024/02/29 02:09:55;;;;;;;;;;;;;;;7.18;100.00;101264.53;5079576;28;19998;-76
2024/02/29 02:12:20;;;;;;;;;;;;;;;7.17;100.00;101268.88;5095883;28;19958;-76
2024/02/29 02:14:45;;;;;;;;;;;;;;;7.16;100.00;101251.53;5093165;28;20127;-76
2024/02/29 02:17:11;;;;;;;;;;;;;;;7.19;100.00;101254.09;5077480;28;19977;-77
2024/02/29 02:19:36;;;;;;;;;;;;;;;7.19;100.00;101264.50;5077460;28;19955;-77
2024/02/29 02:22:04;;;;;;;;;;;;;;;7.18;100.00;101257.56;5094094;28;19920;-76
2024/02/29 02:24:29;;;;;;;;;;;;;;;7.21;100.00;101246.25;5088457;28;20173;-77
2024/02/29 02:26:54;;;;;;;;;;;;;;;7.19;100.00;101248.88;5074699;28;19925;-77
2024/02/29 02:29:20;;;;;;;;;;;;;;;7.21;100.00;101251.44;5077393;28;19927;-76
2024/02/29 02:31:45;;;;;;;;;;;;;;;7.21;100.00;101244.47;5078587;28;20286;-77
2024/02/29 02:34:10;;;;;;;;;;;;;;;7.20;100.00;101232.34;5084966;28;20223;-76
2024/02/29 02:36:35;;;;;;;;;;;;;;;7.23;100.00;101232.28;5084854;28;20223;-76
2024/02/29 02:39:00;;;;;;;;;;;;;;;7.20;100.00;101228.88;5080534;28;19923;-77
2024/02/29 02:41:26;;;;;;;;;;;;;;;7.20;100.00;101231.47;5084927;28;20017;-77
2024/02/29 02:43:51;;;;;;;;;;;;;;;7.21;100.00;101225.41;5078138;28;19957;-77
2024/02/29 02:46:17;;;;;;;;;;;;;;;7.20;100.00;101223.66;5086236;28;19929;-77
2024/02/29 02:48:42;;;;;;;;;;;;;;;7.18;100.00;101226.31;5096200;28;20018;-77
2024/02/29 02:51:08;;;;;;;;;;;;;;;7.18;100.00;101218.47;5076803;28;20010;-77
2024/02/29 02:53:33;;;;;;;;;;;;;;;7.17;100.00;101219.41;5078047;28;20224;-77
2024/02/29 02:55:58;;;;;;;;;;;;;;;7.15;100.00;101215.09;5058800;28;19927;-76
2024/02/29 02:58:23;;;;;;;;;;;;;;;7.14;100.00;101202.97;5083595;28;20007;-77
2024/02/29 03:00:48;;;;;;;;;;;;;;;7.16;100.00;101204.63;5078794;28;19944;-77
2024/02/29 03:03:14;;;;;;;;;;;;;;;7.12;100.00;101203.00;5091135;28;20241;-77
2024/02/29 03:05:39;;;;;;;;;;;;;;;7.15;100.00;101196.84;5087462;28;19927;-77
2024/02/29 03:08:04;;;;;;;;;;;;;;;7.14;100.00;101190.78;5095614;28;19983;-77
2024/02/29 03:10:30;;;;;;;;;;;;;;;7.17;100.00;101179.44;5063466;28;19928;-77
2024/02/29 03:12:55;;;;;;;;;;;;;;;7.15;100.00;101186.44;5083103;28;20246;-77
2024/02/29 03:15:20;;;;;;;;;;;;;;;7.17;100.00;101189.84;5095876;28;19920;-77
2024/02/29 03:17:45;;;;;;;;;;;;;;;7.17;100.00;101187.25;5086971;28;20201;-77
2024/02/29 03:20:13;;;;;;;;;;;;;;;7.18;100.00;101186.38;5057799;28;19991;-77
2024/02/29 03:22:41;;;;;;;;;;;;;;;7.18;100.00;101179.41;5086319;28;19927;-77
2024/02/29 03:25:07;;;;;;;;;;;;;;;7.19;100.00;101173.31;5087425;28;20425;-77
2024/02/29 03:27:32;;;;;;;;;;;;;;;7.21;100.00;101165.47;5076420;28;19943;-77
2024/02/29 03:30:00;;;;;;;;;;;;;;;7.14;100.00;101162.13;5076211;28;19920;-77
2024/02/29 03:32:26;;;;;;;;;;;;;;;7.16;100.00;101154.31;5089421;28;19919;-77
2024/02/29 03:34:51;;;;;;;;;;;;;;;7.17;100.00;101151.66;5078184;28;19991;-77
2024/02/29 03:37:16;;;;;;;;;;;;;;;7.16;100.00;101152.53;5088072;28;19921;-77
2024/02/29 03:39:41;;;;;;;;;;;;;;;7.20;100.00;101150.72;5080595;28;19924;-77
2024/02/29 03:42:07;;;;;;;;;;;;;;;7.22;100.00;101146.34;5093773;28;20152;-77
2024/02/29 03:44:32;;;;;;;;;;;;;;;7.21;100.00;101137.69;5081578;28;19920;-77
2024/02/29 03:46:57;;;;;;;;;;;;;;;7.21;100.00;101149.84;5068875;28;19924;-77
2024/02/29 03:49:22;;;;;;;;;;;;;;;7.21;100.00;101147.25;5064276;28;19924;-77
2024/02/29 03:51:48;;;;;;;;;;;;;;;7.21;100.00;101140.28;5090318;28;19919;-77
2024/02/29 03:54:13;;;;;;;;;;;;;;;7.22;100.00;101135.91;5091037;28;19919;-77
2024/02/29 03:56:38;;;;;;;;;;;;;;;7.24;100.00;101128.94;5089534;28;19933;-77
2024/02/29 03:59:04;;;;;;;;;;;;;;;7.18;100.00;101129.06;5075599;28;19932;-77
2024/02/29 04:01:29;;;;;;;;;;;;;;;7.18;100.00;101121.25;5075788;28;20196;-77
2024/02/29 04:03:55;;;;;;;;;;;;;;;7.20;100.00;101115.09;5082509;28;19924;-77
2024/02/29 04:06:20;;;;;;;;;;;;;;;7.19;100.00;101115.16;5078121;28;19955;-77
2024/02/29 04:08:45;;;;;;;;;;;;;;;7.21;100.00;101108.19;5074836;28;19995;-77
2024/02/29 04:11:10;;;;;;;;;;;;;;;7.18;100.00;101113.44;5080336;28;19920;-77
2024/02/29 04:13:36;;;;;;;;;;;;;;;7.21;100.00;101109.03;5089439;28;19920;-77
2024/02/29 04:16:02;;;;;;;;;;;;;;;7.19;100.00;101103.00;5091351;28;20110;-77
2024/02/29 04:18:27;;;;;;;;;;;;;;;7.20;100.00;101109.06;5079438;28;19932;-77
2024/02/29 04:20:52;;;;;;;;;;;;;;;7.20;100.00;101101.25;5074716;28;19920;-77
2024/02/29 04:23:18;;;;;;;;;;;;;;;7.19;100.00;101108.19;5087354;28;20137;-77
2024/02/29 04:25:45;;;;;;;;;;;;;;;7.18;100.00;101103.88;5090825;28;19923;-77
2024/02/29 04:28:10;;;;;;;;;;;;;;;7.21;100.00;101106.41;5088218;28;19920;-77
2024/02/29 04:30:35;;;;;;;;;;;;;;;7.23;100.00;101102.03;5072529;28;19920;-77
2024/02/29 04:33:02;;;;;;;;;;;;;;;7.20;100.00;101101.25;5076873;28;20127;-77
2024/02/29 04:35:28;;;;;;;;;;;;;;;7.20;100.00;101106.44;5092515;28;19924;-77
2024/02/29 04:37:53;;;;;;;;;;;;;;;7.25;100.00;101096.78;5084287;28;20094;-77
2024/02/29 04:40:18;;;;;;;;;;;;;;;7.23;100.00;101099.41;5078975;28;19979;-77
2024/02/29 04:42:43;;;;;;;;;;;;;;;7.23;100.00;101082.94;5083224;28;19927;-77
2024/02/29 04:45:09;;;;;;;;;;;;;;;7.20;100.00;101081.25;5094556;28;19924;-77
2024/02/29 04:47:35;;;;;;;;;;;;;;;7.24;100.00;101085.53;5094496;28;20246;-76
2024/02/29 04:50:00;;;;;;;;;;;;;;;7.27;100.00;101081.97;5089991;28;20205;-76
2024/02/29 04:52:26;;;;;;;;;;;;;;;7.26;100.00;101082.88;5056888;28;20146;-76
2024/02/29 04:54:51;;;;;;;;;;;;;;;7.26;100.00;101081.13;5070703;28;20105;-77
2024/02/29 04:57:16;;;;;;;;;;;;;;;7.28;100.00;101063.72;5079768;28;19920;-77
2024/02/29 04:59:42;;;;;;;;;;;;;;;7.27;100.00;101072.41;5075041;28;19955;-76
2024/02/29 05:02:09;;;;;;;;;;;;;;;7.27;100.00;101066.34;5074778;28;19950;-77
2024/02/29 05:04:34;;;;;;;;;;;;;;;7.27;100.00;101068.94;5056818;28;19962;-77
2024/02/29 05:07:02;;;;;;;;;;;;;;;7.28;100.00;101062.84;5088196;28;19920;-78
2024/02/29 05:09:27;;;;;;;;;;;;;;;7.26;100.00;101068.09;5076371;28;19966;-76
2024/02/29 05:11:53;;;;;;;;;;;;;;;7.28;100.00;101062.84;5077973;28;19920;-78
2024/02/29 05:14:19;;;;;;;;;;;;;;;7.31;100.00;101062.75;5075488;28;20204;-76
2024/02/29 05:16:44;;;;;;;;;;;;;;;7.32;100.00;101056.69;5085638;28;19927;-76
2024/02/29 05:19:10;;;;;;;;;;;;;;;7.32;100.00;101054.06;5075243;28;19998;-76
2024/02/29 05:21:36;;;;;;;;;;;;;;;7.30;100.00;101051.50;5079518;28;19920;-78
2024/02/29 05:24:01;;;;;;;;;;;;;;;7.32;100.00;101046.25;5079186;28;19966;-78
2024/02/29 05:26:26;;;;;;;;;;;;;;;7.35;100.00;101050.53;5076074;28;19955;-78
2024/02/29 05:28:53;;;;;;;;;;;;;;;7.33;100.00;101053.19;5094832;28;19975;-78
2024/02/29 05:31:20;;;;;;;;;;;;;;;7.32;100.00;101048.00;5092716;28;20247;-77
2024/02/29 05:33:45;;;;;;;;;;;;;;;7.32;100.00;101040.19;5074761;28;19971;-77
2024/02/29 05:36:14;;;;;;;;;;;;;;;7.33;100.00;101036.69;5081708;28;20127;-76
2024/02/29 05:38:39;;;;;;;;;;;;;;;7.30;100.00;101030.66;5074302;28;20251;-77
2024/02/29 05:41:04;;;;;;;;;;;;;;;7.32;100.00;101035.84;5073390;28;20026;-77
2024/02/29 05:43:29;;;;;;;;;;;;;;;7.34;100.00;101027.97;5075365;28;19913;-77
2024/02/29 05:45:55;;;;;;;;;;;;;;;7.36;100.00;101034.00;5074289;28;19924;-77
2024/02/29 05:48:20;;;;;;;;;;;;;;;7.32;100.00;101021.97;5081237;28;19912;-77
2024/02/29 05:50:45;;;;;;;;;;;;;;;7.32;100.00;101028.00;5083985;28;19942;-77
2024/02/29 05:53:10;;;;;;;;;;;;;;;7.32;100.00;101024.56;5072891;28;19921;-77
2024/02/29 05:55:36;;;;;;;;;;;;;;;7.34;100.00;101027.97;5074344;28;19924;-77
2024/02/29 05:58:01;;;;;;;;;;;;;;;7.33;100.00;101024.53;5077934;28;19924;-78
2024/02/29 06:00:27;;;;;;;;;;;;;;;7.34;100.00;101021.00;5085480;28;19920;-77
2024/02/29 06:02:52;;;;;;;;;;;;;;;7.32;100.00;101014.16;5089377;28;19951;-77
2024/02/29 06:05:18;;;;;;;;;;;;;;;7.33;100.00;101019.31;5077816;28;19924;-78
2024/02/29 06:07:43;;;;;;;;;;;;;;;7.34;100.00;101015.81;5080509;28;19920;-78
2024/02/29 06:10:10;;;;;;;;;;;;;;;7.34;100.00;101007.13;5089057;28;19947;-78
2024/02/29 06:12:35;;;;;;;;;;;;;;;7.32;100.00;101016.75;5083947;28;20383;-78
2024/02/29 06:15:00;;;;;;;;;;;;;;;7.30;100.00;101011.56;5091793;28;19943;-78
2024/02/29 06:17:26;;;;;;;;;;;;;;;7.31;100.00;101015.88;5078849;28;19921;-78
2024/02/29 06:19:51;;;;;;;;;;;;;;;7.34;100.00;101014.97;5076850;28;19927;-78
2024/02/29 06:22:18;;;;;;;;;;;;;;;7.33;100.00;101005.41;5077217;28;19908;-77
2024/02/29 06:24:43;;;;;;;;;;;;;;;7.32;100.00;101012.38;5077876;28;19917;-77
2024/02/29 06:27:08;;;;;;;;;;;;;;;7.33;100.00;101014.13;5077820;28;19916;-77
2024/02/29 06:29:34;;;;;;;;;;;;;;;7.35;100.00;101009.72;5073877;28;19982;-77
2024/02/29 06:32:00;;;;;;;;;;;;;;;7.35;100.00;101008.84;5081354;28;19931;-77
2024/02/29 06:34:25;;;;;;;;;;;;;;;7.37;100.00;101009.66;5092612;28;20117;-78
2024/02/29 06:36:51;;;;;;;;;;;;;;;7.37;100.00;101007.94;5058900;28;20255;-78
2024/02/29 06:39:16;;;;;;;;;;;;;;;7.34;100.00;101000.16;5077462;28;19912;-77
2024/02/29 06:41:43;;;;;;;;;;;;;;;7.37;100.00;101005.31;5076541;28;20121;-78
2024/02/29 06:44:09;;;;;;;;;;;;;;;7.36;100.00;101000.13;5087429;28;19927;-78
2024/02/29 06:46:34;;;;;;;;;;;;;;;7.37;100.00;101007.03;5079074;28;20096;-78
2024/02/29 06:49:00;;;;;;;;;;;;;;;7.33;100.00;100995.88;5077512;28;19917;-77
2024/02/29 06:51:27;;;;;;;;;;;;;;;7.38;100.00;100995.75;5069787;28;19924;-77
2024/02/29 06:53:52;;;;;;;;;;;;;;;7.36;100.00;100993.16;5068155;28;19973;-78
2024/02/29 06:56:17;;;;;;;;;;;;;;;7.35;100.00;100990.59;5077758;28;19980;-77
2024/02/29 06:58:43;;;;;;;;;;;;;;;7.37;100.00;100986.19;5078868;28;19920;-78
2024/02/29 07:01:09;;;;;;;;;;;;;;;7.38;100.00;100985.31;5090900;28;19916;-77
2024/02/29 07:03:34;;;;;;;;;;;;;;;7.37;100.00;100989.69;5075573;28;19996;-78
2024/02/29 07:05:59;;;;;;;;;;;;;;;7.38;100.00;100993.97;5075889;28;19916;-78
2024/02/29 07:08:24;;;;;;;;;;;;;;;7.38;100.00;100993.97;5076146;28;19917;-77
2024/02/29 07:10:50;;;;;;;;;;;;;;;7.41;100.00;100990.47;5075258;28;20242;-79
2024/02/29 07:13:15;;;;;;;;;;;;;;;7.41;100.00;100990.47;5083446;28;20234;-79
2024/02/29 07:15:40;;;;;;;;;;;;;;;7.40;100.00;100978.31;5087071;28;19955;-78
2024/02/29 07:18:06;;;;;;;;;;;;;;;7.43;100.00;100978.25;5058660;28;19926;-78
2024/02/29 07:20:31;;;;;;;;;;;;;;;7.42;100.00;100977.41;5077334;28;19916;-78
2024/02/29 07:22:57;;;;;;;;;;;;;;;7.40;100.00;100976.56;5077089;28;20349;-78
2024/02/29 07:25:22;;;;;;;;;;;;;;;7.42;100.00;100980.00;5077107;28;20215;-79
2024/02/29 07:27:48;;;;;;;;;;;;;;;7.42;100.00;100987.81;5076804;28;20115;-78
2024/02/29 07:30:16;;;;;;;;;;;;;;;7.43;100.00;100976.50;5076117;28;19916;-78
2024/02/29 07:32:41;;;;;;;;;;;;;;;7.42;100.00;100973.91;5076393;28;19923;-78
2024/02/29 07:35:07;;;;;;;;;;;;;;;7.39;100.00;100974.88;5076158;28;19916;-78
2024/02/29 07:37:32;;;;;;;;;;;;;;;7.44;100.00;100977.34;5076385;28;19924;-78
2024/02/29 07:39:58;;;;;;;;;;;;;;;7.47;100.00;100974.66;5076446;28;19942;-78
2024/02/29 07:42:23;;;;;;;;;;;;;;;7.48;100.00;100965.97;5076816;28;20018;-78
2024/02/29 07:44:48;;;;;;;;;;;;;;;7.50;100.00;100966.78;5093449;28;19920;-78
2024/02/29 07:47:13;;;;;;;;;;;;;;;7.47;100.00;100962.47;5096067;28;19984;-79
2024/02/29 07:49:38;;;;;;;;;;;;;;;7.50;100.00;100967.63;5089987;28;19954;-79
2024/02/29 07:52:04;;;;;;;;;;;;;;;7.49;100.00;100965.94;5075039;28;19923;-78
2024/02/29 07:54:29;;;;;;;;;;;;;;;7.52;100.00;100957.16;5076688;28;19917;-78
2024/02/29 07:56:56;;;;;;;;;;;;;;;7.51;100.00;100958.03;5074932;28;19974;-78
2024/02/29 07:59:21;;;;;;;;;;;;;;;7.55;100.00;100964.03;5075545;28;19920;-79
2024/02/29 08:01:47;;;;;;;;;;;;;;;7.54;100.00;100964.94;5075815;28;19962;-78
2024/02/29 08:04:12;;;;;;;;;;;;;;;7.54;100.00;100959.72;5074828;28;19917;-78
2024/02/29 08:06:37;;;;;;;;;;;;;;;7.56;100.00;100953.56;5073737;28;19916;-78
2024/02/29 08:09:05;;;;;;;;;;;;;;;7.56;100.00;100964.00;5076283;28;19917;-78
2024/02/29 08:11:30;;;;;;;;;;;;;;;7.62;100.00;100962.97;5054019;28;19917;-78
2024/02/29 08:13:55;;;;;;;;;;;;;;;7.62;100.00;100957.75;5085032;28;19943;-78
2024/02/29 08:16:20;;;;;;;;;;;;;;;7.62;100.00;100960.38;5097042;28;19916;-78
2024/02/29 08:18:48;;;;;;;;;;;;;;;7.62;100.00;100957.75;5096478;28;20215;-78
2024/02/29 08:21:13;;;;;;;;;;;;;;;7.65;100.00;100960.31;5096373;28;20010;-78
2024/02/29 08:23:38;;;;;;;;;;;;;;;7.65;100.00;100958.53;5095388;28;20351;-78
2024/02/29 08:26:10;;;;;;;;;;;;;;;7.67;100.00;100953.28;5095565;28;20271;-78
2024/02/29 08:28:37;;;;;;;;;;;;;;;7.66;100.00;100954.19;5073461;28;19953;-78
2024/02/29 08:31:02;;;;;;;;;;;;;;;7.64;100.00;100955.97;5075040;28;20128;-78
2024/02/29 08:33:27;;;;;;;;;;;;;;;7.60;100.00;100955.19;5075508;28;19916;-78
2024/02/29 08:35:53;;;;;;;;;;;;;;;7.62;100.00;100957.75;5056679;28;20216;-78
2024/02/29 08:38:18;;;;;;;;;;;;;;;7.63;100.00;100952.50;5073248;28;19921;-78
2024/02/29 08:40:43;;;;;;;;;;;;;;;7.65;100.00;100953.31;5073946;28;19920;-78
2024/02/29 08:43:08;;;;;;;;;;;;;;;7.68;100.00;100952.41;5075070;28;19920;-78
2024/02/29 08:45:34;;;;;;;;;;;;;;;7.70;100.00;100950.63;5075748;28;19982;-78
2024/02/29 08:48:00;;;;;;;;;;;;;;;7.70;100.00;100950.63;5073074;28;19923;-78
2024/02/29 08:50:25;;;;;;;;;;;;;;;7.70;100.00;100942.78;5073967;28;19917;-78
2024/02/29 08:52:50;;;;;;;;;;;;;;;7.73;100.00;100945.31;5071628;28;19916;-78
2024/02/29 08:55:15;;;;;;;;;;;;;;;7.74;100.00;100933.97;5075699;28;20246;-78
2024/02/29 08:57:41;;;;;;;;;;;;;;;7.79;100.00;100941.69;5075076;28;19924;-78
2024/02/29 09:00:06;;;;;;;;;;;;;;;7.80;100.00;100939.00;5064813;28;19970;-78
2024/02/29 09:02:31;;;;;;;;;;;;;;;7.82;100.00;100932.03;5059097;28;20161;-78
2024/02/29 09:04:56;;;;;;;;;;;;;;;7.83;100.00;100933.72;5063841;28;19916;-78
2024/02/29 09:07:22;;;;;;;;;;;;;;;7.83;100.00;100923.28;5053758;28;19938;-78
2024/02/29 09:09:47;;;;;;;;;;;;;;;7.83;100.00;100918.09;5055025;28;19916;-78
2024/02/29 09:12:14;;;;;;;;;;;;;;;7.84;100.00;100926.75;5052230;28;19920;-78
2024/02/29 09:14:40;;;;;;;;;;;;;;;7.86;100.00;100936.25;5063042;28;19916;-78
2024/02/29 09:17:06;;;;;;;;;;;;;;;7.88;100.00;100918.81;5067164;28;19996;-78
2024/02/29 09:19:31;;;;;;;;;;;;;;;7.88;100.00;100921.41;5072397;28;20252;-78
2024/02/29 09:21:56;;;;;;;;;;;;;;;7.91;100.00;100924.84;5069017;28;19924;-78
2024/02/29 09:24:22;;;;;;;;;;;;;;;7.90;100.00;100917.94;5066428;28;19923;-78
2024/02/29 09:26:47;;;;;;;;;;;;;;;7.85;100.00;100918.03;5069670;28;19916;-78
2024/02/29 09:29:15;;;;;;;;;;;;;;;7.85;100.00;100916.28;5064822;28;20829;-78
2024/02/29 09:31:41;;;;;;;;;;;;;;;7.87;100.00;100914.47;5068651;28;19923;-78
2024/02/29 09:34:07;;;;;;;;;;;;;;;7.90;100.00;100913.56;5068497;28;20170;-78
2024/02/29 09:36:33;;;;;;;;;;;;;;;7.92;100.00;100908.31;5073916;28;19920;-78
2024/02/29 09:38:58;;;;;;;;;;;;;;;7.87;100.00;100914.47;5073320;28;20285;-78
2024/02/29 09:41:23;;;;;;;;;;;;;;;7.92;100.00;100909.16;5072337;28;19987;-78
2024/02/29 09:43:49;;;;;;;;;;;;;;;7.91;100.00;100910.03;5068185;28;19967;-78
2024/02/29 09:46:15;;;;;;;;;;;;;;;7.92;100.00;100906.53;5072562;28;19994;-78
2024/02/29 09:48:41;;;;;;;;;;;;;;;7.92;100.00;100900.47;5074868;28;19923;-78
2024/02/29 09:51:10;;;;;;;;;;;;;;;7.93;100.00;100903.03;5072965;28;19921;-78
2024/02/29 09:53:36;;;;;;;;;;;;;;;7.95;100.00;100898.63;5072857;28;19931;-78
2024/02/29 09:56:04;;;;;;;;;;;;;;;7.95;100.00;100905.59;5074355;28;19988;-78
2024/02/29 09:58:31;;;;;;;;;;;;;;;7.97;100.00;100903.81;5071358;28;19931;-78
2024/02/29 10:00:57;;;;;;;;;;;;;;;7.99;100.00;100905.47;5067079;28;20199;-78
2024/02/29 10:03:22;;;;;;;;;;;;;;;7.99;100.00;100902.00;5068291;28;19980;-78
2024/02/29 10:05:50;;;;;;;;;;;;;;;8.00;100.00;100901.94;5056673;28;20184;-78
2024/02/29 10:08:15;;;;;;;;;;;;;;;8.01;100.00;100901.06;5045162;28;19921;-78
2024/02/29 10:10:41;;;;;;;;;;;;;;;7.99;100.00;100894.19;5055507;28;20164;-78
2024/02/29 10:13:06;;;;;;;;;;;;;;;7.99;100.00;100899.41;5056777;28;19917;-78
2024/02/29 10:15:32;;;;;;;;;;;;;;;7.99;100.00;100883.75;5055151;28;19928;-78
2024/02/29 10:18:00;;;;;;;;;;;;;;;8.01;100.00;100887.16;5055273;28;20187;-78
2024/02/29 10:20:26;;;;;;;;;;;;;;;8.03;100.00;100880.16;5077351;28;19920;-78
2024/02/29 10:22:51;;;;;;;;;;;;;;;8.08;100.00;100886.09;5053783;28;19916;-78
2024/02/29 10:25:17;;;;;;;;;;;;;;;8.08;100.00;100879.13;5072799;28;20198;-79
2024/02/29 10:27:43;;;;;;;;;;;;;;;8.11;100.00;100878.16;5068608;28;19954;-78
2024/02/29 10:30:10;;;;;;;;;;;;;;;8.13;100.00;100884.22;5055426;28;20353;-78
2024/02/29 10:32:35;;;;;;;;;;;;;;;8.12;100.00;100879.88;5064777;28;19916;-78
2024/02/29 10:35:19;;;;;;;;;;;;;;;8.13;100.00;100881.59;5071865;28;19991;-79
2024/02/29 10:37:45;;;;;;;;;;;;;;;8.13;100.00;100878.13;5068871;28;20189;-78
2024/02/29 10:40:11;;;;;;;;;;;;;;;8.12;100.00;100869.44;5073293;28;19917;-78
2024/02/29 10:42:38;;;;;;;;;;;;;;;8.15;100.00;100865.88;5069842;28;19913;-79
2024/02/29 10:45:04;;;;;;;;;;;;;;;8.18;100.00;100861.41;5069347;28;19916;-78
2024/02/29 10:47:33;;;;;;;;;;;;;;;8.18;100.00;100861.41;5066710;28;19999;-79
2024/02/29 10:50:03;;;;;;;;;;;;;;;8.17;100.00;100861.50;5070210;28;20041;-79
2024/02/29 10:52:33;;;;;;;;;;;;;;;8.20;100.00;100859.63;5071273;28;20256;-79
2024/02/29 10:55:09;;;;;;;;;;;;;;;8.21;100.00;100858.72;5071329;28;20196;-79
2024/02/29 10:57:50;;;;;;;;;;;;;;;8.25;100.00;100855.13;5070604;28;19928;-79
2024/02/29 11:00:15;;;;;;;;;;;;;;;8.30;100.00;100855.00;5053528;28;19923;-79
2024/02/29 11:02:41;;;;;;;;;;;;;;;8.31;100.00;100848.00;5062816;28;19916;-77
2024/02/29 11:05:07;;;;;;;;;;;;;;;8.34;100.00;100847.91;5071396;28;19916;-77
2024/02/29 11:07:34;;;;;;;;;;;;;;;8.34;100.00;100853.13;5072008;28;20200;-77
2024/02/29 11:10:01;;;;;;;;;;;;;;;8.34;100.00;100840.94;5071667;28;20247;-78
2024/02/29 11:12:28;;;;;;;;;;;;;;;8.35;100.00;100844.38;5072420;28;19921;-77
2024/02/29 11:14:56;;;;;;;;;;;;;;;8.35;100.00;100836.56;5070350;28;19946;-77
2024/02/29 11:17:21;;;;;;;;;;;;;;;8.38;100.00;100842.53;5071295;28;19995;-77
2024/02/29 11:19:56;;;;;;;;;;;;;;;8.39;100.00;100836.44;5071878;28;19916;-77
2024/02/29 11:22:30;;;;;;;;;;;;;;;8.42;100.00;100841.59;5053424;28;19916;-78
2024/02/29 11:24:55;;;;;;;;;;;;;;;8.44;100.00;100831.97;5072573;28;19917;-77
2024/02/29 11:27:28;;;;;;;;;;;;;;;8.45;100.00;100822.38;5071398;28;20231;-77
2024/02/29 11:29:58;;;;;;;;;;;;;;;8.44;100.00;100820.66;5069124;28;20269;-77
2024/02/29 11:32:24;;;;;;;;;;;;;;;8.47;100.00;100815.34;5070946;28;19924;-77
2024/02/29 11:34:49;;;;;;;;;;;;;;;8.46;100.00;100816.25;5069475;28;20204;-77
2024/02/29 11:37:15;;;;;;;;;;;;;;;8.49;100.00;100810.06;5052097;28;19928;-77
2024/02/29 11:39:40;;;;;;;;;;;;;;;8.53;100.00;100816.88;5071572;28;19916;-77
2024/02/29 11:42:06;;;;;;;;;;;;;;;8.55;100.00;100810.72;5070658;28;19986;-77
2024/02/29 11:44:33;;;;;;;;;;;;;;;8.56;100.00;100814.19;5071085;28;19995;-77
2024/02/29 11:46:58;;;;;;;;;;;;;;;8.54;100.00;100805.56;5072155;28;19961;-77
2024/02/29 11:49:26;;;;;;;;;;;;;;;8.55;100.00;100800.28;5070811;28;20239;-76
2024/02/29 11:51:52;;;;;;;;;;;;;;;8.53;100.00;100790.78;5070190;28;19924;-76
2024/02/29 11:54:18;;;;;;;;;;;;;;;8.52;100.00;100789.09;5069854;28;19959;-79
2024/02/29 11:56:43;;;;;;;;;;;;;;;8.52;100.00;100789.94;5071246;28;19977;-78
2024/02/29 11:59:15;;;;;;;;;;;;;;;8.53;100.00;100790.78;5070127;28;20123;-78
2024/02/29 12:01:41;;;;;;;;;;;;;;;8.54;100.00;100785.53;5064816;28;20200;-78
2024/02/29 12:04:06;;;;;;;;;;;;;;;8.55;100.00;100778.53;5055045;28;19980;-79
2024/02/29 12:06:35;;;;;;;;;;;;;;;8.53;100.00;100783.84;5071452;28;20116;-79
2024/02/29 12:09:01;;;;;;;;;;;;;;;8.56;100.00;100783.72;5054686;28;19921;-78
2024/02/29 12:11:26;;;;;;;;;;;;;;;8.58;100.00;100781.06;5054867;28;19932;-78
2024/02/29 12:13:52;;;;;;;;;;;;;;;8.60;100.00;100771.41;5053159;28;19917;-79
2024/02/29 12:16:17;;;;;;;;;;;;;;;8.60;100.00;100774.91;5056502;28;19921;-79
2024/02/29 12:18:44;;;;;;;;;;;;;;;8.59;100.00;100773.19;5045681;28;19923;-79
2024/02/29 12:21:09;;;;;;;;;;;;;;;8.61;100.00;100765.28;5070031;28;19938;-78
2024/02/29 12:23:34;;;;;;;;;;;;;;;8.59;100.00;100749.69;5070862;28;19916;-78
2024/02/29 12:26:07;;;;;;;;;;;;;;;8.61;100.00;100752.25;5069034;28;20216;-78
2024/02/29 12:28:32;;;;;;;;;;;;;;;8.62;100.00;100751.31;5050092;28;19917;-79